Terminal Aerodrome Forecast
Issued by NWS Green Bay, WI

Home | Current Version | Previous Version | Graphics & Text | Print | Product List | Glossary Off
Versions: 1 2 3 4 5 6 7 8 9 10 11 12 13 14 15 16 17 18 19 20 21 22 23 24 25 26 27 28 29 30 31 32 33 34

000
FTUS43 KGRB 240900 AAA
TAFGRB
TAF AMD
KGRB 240902Z 2409/2506 10005KT P6SM SCT050 OVC090
      TEMPO 2411/2413 -SHRA OVC040
     FM241300 11012G21KT 6SM -SHRA BR BKN035 OVC050 WS020/14035KT
     FM241900 10018G27KT 3SM -RA BR BKN035 OVC040 WS020/15045KT
     FM250200 14009KT 6SM -RA BR BKN015 OVC040 WS020/15075KT=

USA.gov is the U.S. government's official web portal to all federal, state and local government web resources and services.